Observations for VALLEY RAF, United Kingdom (EGOV)

EGOV 241950Z 21004KT 9999 FEW045 SCT070 07/06 Q1007 BLU 
EGOV 241850Z 28005KT 9999 FEW038 SCT070 BKN130 08/07 Q1007 BLU  
EGOV 241750Z 36005KT 9999 FEW007 BKN050 08/07 Q1007 BLU 
EGOV 241650Z 36009KT 7000 -RA FEW003 SCT006 OVC043 08/07 Q1006 YLO1 
EGOV 241625Z 35011KT 4000 RADZ SCT003 BKN006 OVC016 08/07 Q1007 YLO2 TEMPO 9999 NSW SCT006 YLO1 
EGOV 241625Z 35011KT 4000 RADZ SCT003 BKN006 OVC016 08/07 Q1007 YLO2 TEMPO 9999NSW SCT006 YLO1
EGOV 241550Z 34013KT 8000 -RA SCT003 BKN005 OVC011 08/08 Q1007 YLO2 TEMPO 5000 -RADZ YLO2   
EGOV 241450Z 23002KT 7000 -DZ SCT003 BKN004 OVC005 09/08 Q1007 YLO2 TEMPO 4000 YLO2 
EGOV 241350Z 18007KT 6000 -DZ SCT003 BKN004 OVC007 09/09 Q1008 YLO2 BECMG 9999 YLO2 
EGOV 241250Z 21012KT 6000 RA BKN003 OVC011 09/09 Q1009 YLO2 TEMPO 4000 YLO2 
EGOV 241150Z 20012KT 7000 RA FEW002 BKN003 OVC012 09/09 Q1010 YLO2 TEMPO SCT002 AMB 
EGOV 241050Z 20015KT 7000 RA BKN003 OVC032 09/09 Q1011 YLO2 TEMPO SCT002 AMB
EGOV 240950Z 21015KT 6000 RA BKN004 OVC030 09/09 Q1011 YLO2 TEMPO SCT002 BKN010 AMB 
EGOV 240850Z 20014KT 9999 7000W -RADZ BKN003 OVC030 09/09 Q1012 YLO2 TEMPO FEW003 WHT   
EGOV 240831Z 20016KT 9000 -RA SCT004 OVC037 10/09 Q1012 YLO2 BECMG 6000 RA YLO2 
EGOV 240831Z 20016KT 9000 -RA SCT004 OVC037 10/09 Q1012 YLO2 BECMG 6000 RA YLO2
EGOV 240750Z 20016KT 9999 -RA FEW010 BKN045 OVC080 09/08 Q1012 BLU TEMPO 6000 RA SCT003 YLO2
EGOV 240650Z 22014KT 9999 FEW010 BKN050 09/08 Q1013 BLU NOSIG   
EGOV 240550Z 22015KT CAVOK 09/08 Q1012 BLU NOSIG
EGOV 240450Z AUTO 22016KT 9999 FEW050/// SCT140/// 09/07 Q1012  
EGOV 240350Z AUTO 22016KT 9999 FEW050/// BKN140/// 09/07 Q1012  
EGOV 240250Z AUTO 23015KT 9999 SCT050/// BKN120/// 10/06 Q1013  
EGOV 240150Z AUTO 23017KT 9999 BKN140/// 09/06 Q1012
EGOV 240050Z AUTO 23014KT 9999 BKN130/// 09/07 Q1012
EGOV 232350Z AUTO 25014KT 9999 BKN110/// 10/06 Q1013
EGOV 232250Z AUTO 26012KT 9999 OVC100/// 09/06 Q1013
EGOV 232150Z AUTO 26011KT 9999 BKN130/// 09/07 Q1012
EGOV 232050Z AUTO 22015KT 0600 FG VV/// 09/09 Q1012 
EGOV 231950Z 22019KT 0300 FG VV/// 10/10 Q1011 RED